createdAt,value
2018-12-21T00:00:15.905Z,6.50
2018-12-21T00:02:44.546Z,5.00
2018-12-21T00:05:13.018Z,4.90
2018-12-21T00:07:41.255Z,5.30
2018-12-21T00:10:09.656Z,4.63
2018-12-21T00:12:37.908Z,5.20
2018-12-21T00:15:06.987Z,5.20
2018-12-21T00:17:35.298Z,5.00
2018-12-21T00:20:04.150Z,5.00
2018-12-21T00:22:32.423Z,5.47
2018-12-21T00:25:00.802Z,5.33
2018-12-21T00:27:29.076Z,4.80
2018-12-21T00:29:57.350Z,5.50
2018-12-21T00:32:31.608Z,5.93
2018-12-21T00:35:05.778Z,5.13
2018-12-21T00:37:39.808Z,5.20
2018-12-21T00:40:13.716Z,4.53
2018-12-21T00:42:44.731Z,5.60
2018-12-21T00:45:14.892Z,5.77
2018-12-21T00:47:43.265Z,5.87
2018-12-21T00:50:11.531Z,4.63
2018-12-21T00:52:39.823Z,6.63
2018-12-21T00:55:08.172Z,5.47
2018-12-21T00:57:36.564Z,4.07
2018-12-21T01:00:08.131Z,5.93
2018-12-21T01:02:36.340Z,5.33
2018-12-21T01:05:04.784Z,5.43
2018-12-21T01:07:33.250Z,5.10
2018-12-21T01:10:01.631Z,4.47
2018-12-21T01:12:34.963Z,4.87
2018-12-21T01:15:03.462Z,4.90
2018-12-21T01:17:31.772Z,5.07
2018-12-21T01:20:00.116Z,5.00
2018-12-21T01:22:28.601Z,4.43
2018-12-21T01:24:56.908Z,4.50
2018-12-21T01:27:25.176Z,4.50
2018-12-21T01:29:53.446Z,5.03
2018-12-21T01:32:22.107Z,4.70
2018-12-21T01:34:50.374Z,5.80
2018-12-21T01:37:18.602Z,4.90
2018-12-21T01:39:47.030Z,5.00
2018-12-21T01:42:15.406Z,4.77
2018-12-21T01:44:43.684Z,4.73
2018-12-21T01:47:12.057Z,4.27
2018-12-21T01:49:40.264Z,4.57
2018-12-21T01:52:08.561Z,5.33
2018-12-21T01:54:36.983Z,5.80
2018-12-21T01:57:05.304Z,4.40
2018-12-21T01:59:33.633Z,5.30
2018-12-21T02:02:02.218Z,4.10
2018-12-21T02:04:30.489Z,4.47
2018-12-21T02:06:58.845Z,5.40
2018-12-21T02:09:27.223Z,3.60
2018-12-21T02:11:55.622Z,4.10
2018-12-21T02:14:23.940Z,5.57
2018-12-21T02:16:52.273Z,4.20
2018-12-21T02:19:20.648Z,3.97
2018-12-21T02:21:55.818Z,4.40
2018-12-21T02:24:19.143Z,4.53
2018-12-21T02:26:47.331Z,4.10
2018-12-21T02:29:15.696Z,4.63
2018-12-21T02:31:43.905Z,5.30
2018-12-21T02:34:12.192Z,5.00
2018-12-21T02:36:40.516Z,4.87
2018-12-21T02:39:08.704Z,4.83
2018-12-21T02:41:37.031Z,4.60
2018-12-21T02:44:05.282Z,5.40
2018-12-21T02:46:33.975Z,4.60
2018-12-21T02:49:02.252Z,4.57
2018-12-21T02:51:30.596Z,4.70
2018-12-21T02:53:58.884Z,4.23
2018-12-21T02:56:27.226Z,4.53
2018-12-21T02:58:55.437Z,4.97
2018-12-21T03:01:23.775Z,4.43
2018-12-21T03:03:53.844Z,5.00
2018-12-21T03:06:22.166Z,5.00
2018-12-21T03:08:50.393Z,4.43
2018-12-21T03:11:18.641Z,4.60
2018-12-21T03:13:46.890Z,3.60
2018-12-21T03:16:15.264Z,6.10
2018-12-21T03:18:43.540Z,4.40
2018-12-21T03:21:11.812Z,4.17
2018-12-21T03:23:39.991Z,4.00
2018-12-21T03:26:08.362Z,6.70
2018-12-21T03:28:36.739Z,5.33
2018-12-21T03:31:05.025Z,4.00
2018-12-21T03:33:33.376Z,4.53
2018-12-21T03:36:01.771Z,4.37
2018-12-21T03:38:30.192Z,3.87
2018-12-21T03:40:58.419Z,3.70
2018-12-21T03:43:26.799Z,3.87
2018-12-21T03:45:55.276Z,4.80
2018-12-21T03:48:24.405Z,4.50
2018-12-21T03:50:52.788Z,4.30
2018-12-21T03:53:21.124Z,3.80
2018-12-21T03:55:49.447Z,3.60
2018-12-21T03:58:17.775Z,4.20
2018-12-21T04:00:46.017Z,4.70
2018-12-21T04:03:14.837Z,4.40
2018-12-21T04:05:43.214Z,3.83
2018-12-21T04:08:11.417Z,4.27
2018-12-21T04:10:40.049Z,4.00
2018-12-21T04:13:08.310Z,3.97
2018-12-21T04:15:36.545Z,4.10
2018-12-21T04:18:04.891Z,4.30
2018-12-21T04:20:33.215Z,3.97
2018-12-21T04:23:02.772Z,4.40
2018-12-21T04:25:31.149Z,3.70
2018-12-21T04:27:59.558Z,3.70
2018-12-21T04:30:27.832Z,3.87
2018-12-21T04:32:56.132Z,4.93
2018-12-21T04:35:24.417Z,4.50
2018-12-21T04:37:52.830Z,4.57
2018-12-21T04:40:21.158Z,4.53
2018-12-21T04:42:49.413Z,5.00
2018-12-21T04:45:17.716Z,5.27
2018-12-21T04:47:46.387Z,5.13
2018-12-21T04:50:14.872Z,6.17
2018-12-21T04:52:43.675Z,5.50
2018-12-21T04:55:12.059Z,5.10
2018-12-21T04:57:40.525Z,5.63
2018-12-21T05:00:08.869Z,5.30
2018-12-21T05:02:37.213Z,5.27
2018-12-21T05:05:05.691Z,6.13
2018-12-21T05:07:33.925Z,5.30
2018-12-21T05:10:02.341Z,6.50
2018-12-21T05:12:30.719Z,5.47
2018-12-21T05:14:59.030Z,5.17
2018-12-21T05:17:27.310Z,6.83
2018-12-21T05:19:55.659Z,6.17
2018-12-21T05:22:23.920Z,5.73
2018-12-21T05:24:52.194Z,5.83
2018-12-21T05:27:20.480Z,5.67
2018-12-21T05:29:48.948Z,6.50
2018-12-21T05:32:17.223Z,6.67
2018-12-21T05:34:45.456Z,6.60
2018-12-21T05:37:13.778Z,6.90
2018-12-21T05:39:41.971Z,5.40
2018-12-21T05:42:10.322Z,6.47
2018-12-21T05:44:38.577Z,5.50
2018-12-21T05:47:07.927Z,6.43
2018-12-21T05:49:36.380Z,6.60
2018-12-21T05:52:04.751Z,6.67
2018-12-21T05:54:32.984Z,6.63
2018-12-21T05:57:01.299Z,6.67
2018-12-21T05:59:29.614Z,6.30
2018-12-21T06:01:57.950Z,6.33
2018-12-21T06:04:26.328Z,5.77
2018-12-21T06:06:54.636Z,5.53
2018-12-21T06:09:23.022Z,7.20
2018-12-21T06:11:51.360Z,6.37
2018-12-21T06:14:19.735Z,5.43
2018-12-21T06:16:48.051Z,6.03
2018-12-21T06:19:16.488Z,8.13
2018-12-21T06:21:44.705Z,9.20
2018-12-21T06:24:13.075Z,11.17
2018-12-21T06:26:41.412Z,11.20
2018-12-21T06:29:09.788Z,10.20
2018-12-21T06:31:38.276Z,8.67
2018-12-21T06:34:06.515Z,9.00
2018-12-21T06:36:34.961Z,7.30
2018-12-21T06:39:05.655Z,7.40
2018-12-21T06:41:33.909Z,6.70
2018-12-21T06:44:02.407Z,7.53
2018-12-21T06:46:30.726Z,8.10
2018-12-21T06:48:59.049Z,7.63
2018-12-21T06:51:27.436Z,9.80
2018-12-21T06:53:55.725Z,9.37
2018-12-21T06:56:24.066Z,8.83
2018-12-21T06:58:52.462Z,8.37
2018-12-21T07:01:20.738Z,9.40
2018-12-21T07:03:49.014Z,8.20
2018-12-21T07:06:17.490Z,8.40
2018-12-21T07:08:45.696Z,7.93
2018-12-21T07:11:14.040Z,7.20
2018-12-21T07:13:42.337Z,6.20
2018-12-21T07:16:10.796Z,6.20
2018-12-21T07:18:39.016Z,6.87
2018-12-21T07:21:07.287Z,5.80
2018-12-21T07:23:35.721Z,6.07
2018-12-21T07:26:04.097Z,7.27
2018-12-21T07:28:32.363Z,7.07
2018-12-21T07:31:00.568Z,7.27
2018-12-21T07:33:28.963Z,7.63
2018-12-21T07:35:57.350Z,7.27
2018-12-21T07:38:25.696Z,6.27
2018-12-21T07:40:54.184Z,6.00
2018-12-21T07:43:22.461Z,6.73
2018-12-21T07:45:50.733Z,6.60
2018-12-21T07:48:19.080Z,6.63
2018-12-21T07:50:47.262Z,5.57
2018-12-21T07:53:15.628Z,6.50
2018-12-21T07:55:44.005Z,5.60
2018-12-21T07:58:12.280Z,5.50
2018-12-21T08:00:41.113Z,5.60
2018-12-21T08:03:09.546Z,6.37
2018-12-21T08:05:37.886Z,5.80
2018-12-21T08:08:06.301Z,6.70
2018-12-21T08:10:34.677Z,5.80
2018-12-21T08:13:02.951Z,7.10
2018-12-21T08:15:31.331Z,6.20
2018-12-21T08:17:59.708Z,5.63
2018-12-21T08:20:28.056Z,5.20
2018-12-21T08:22:56.392Z,5.67
2018-12-21T08:25:24.769Z,4.80
2018-12-21T08:27:53.122Z,4.53
2018-12-21T08:30:21.486Z,5.20
2018-12-21T08:32:49.865Z,4.90
2018-12-21T08:35:18.139Z,4.37
2018-12-21T08:37:46.378Z,4.57
2018-12-21T08:40:14.721Z,4.60
2018-12-21T08:42:43.064Z,6.07
2018-12-21T08:45:11.477Z,5.70
2018-12-21T08:47:39.728Z,6.07
2018-12-21T08:50:08.229Z,5.50
2018-12-21T08:52:36.674Z,5.57
2018-12-21T08:55:05.190Z,5.80
2018-12-21T08:57:33.736Z,5.23
2018-12-21T09:00:02.113Z,5.70
2018-12-21T09:02:30.427Z,4.90
2018-12-21T09:04:58.664Z,4.20
2018-12-21T09:07:26.967Z,4.33
2018-12-21T09:09:55.209Z,4.70
2018-12-21T09:12:23.535Z,4.57
2018-12-21T09:14:51.746Z,5.20
2018-12-21T09:17:20.428Z,4.50
2018-12-21T09:19:48.747Z,5.20
2018-12-21T09:22:17.069Z,4.40
2018-12-21T09:24:45.424Z,4.17
2018-12-21T09:27:13.875Z,3.90
2018-12-21T09:29:42.328Z,4.37
2018-12-21T09:32:10.608Z,4.60
2018-12-21T09:34:38.969Z,5.03
2018-12-21T09:37:07.244Z,5.10
2018-12-21T09:39:35.519Z,5.53
2018-12-21T09:42:03.956Z,5.03
2018-12-21T09:44:32.219Z,6.00
2018-12-21T09:47:00.564Z,6.20
2018-12-21T09:49:28.973Z,5.50
2018-12-21T09:51:57.530Z,4.53
2018-12-21T09:54:25.895Z,5.00
2018-12-21T09:56:54.138Z,5.00
2018-12-21T09:59:22.376Z,5.27
2018-12-21T10:01:50.743Z,4.93
2018-12-21T10:04:19.068Z,5.57
2018-12-21T10:06:48.072Z,4.10
2018-12-21T10:09:16.271Z,4.70
2018-12-21T10:11:44.632Z,4.40
2018-12-21T10:14:12.918Z,5.17
2018-12-21T10:16:41.930Z,5.17
2018-12-21T10:19:10.730Z,5.30
2018-12-21T10:21:39.512Z,4.80
2018-12-21T10:24:08.037Z,5.13
2018-12-21T10:26:36.381Z,4.40
2018-12-21T10:29:04.823Z,4.70
2018-12-21T10:31:33.203Z,4.53
2018-12-21T10:34:02.056Z,4.20
2018-12-21T10:36:30.975Z,4.70
2018-12-21T10:38:59.444Z,3.97
2018-12-21T10:41:27.724Z,4.17
2018-12-21T10:43:55.997Z,4.40
2018-12-21T10:46:24.442Z,3.77
2018-12-21T10:48:52.879Z,3.33
2018-12-21T10:51:21.647Z,4.00
2018-12-21T10:53:50.591Z,4.03
2018-12-21T10:56:18.929Z,4.03
2018-12-21T10:58:47.235Z,4.40
2018-12-21T11:01:15.575Z,4.37
2018-12-21T11:03:43.929Z,4.33
2018-12-21T11:06:12.264Z,4.10
2018-12-21T11:08:40.793Z,4.20
2018-12-21T11:11:09.180Z,4.03
2018-12-21T11:13:37.684Z,3.80
2018-12-21T11:16:06.217Z,3.73
2018-12-21T11:18:34.519Z,3.50
2018-12-21T11:21:03.020Z,4.00
2018-12-21T11:23:31.817Z,3.90
2018-12-21T11:26:01.408Z,4.53
2018-12-21T11:28:30.002Z,3.90
2018-12-21T11:30:58.407Z,5.33
2018-12-21T11:33:26.923Z,4.93
2018-12-21T11:35:55.410Z,5.27
2018-12-21T11:38:23.716Z,4.70
2018-12-21T11:40:51.975Z,3.60
2018-12-21T11:43:21.085Z,3.00
2018-12-21T11:45:49.481Z,2.80
2018-12-21T11:48:17.696Z,2.93
2018-12-21T11:50:46.080Z,3.40
2018-12-21T11:53:14.430Z,3.30
2018-12-21T11:55:43.094Z,3.30
2018-12-21T11:58:12.022Z,3.03
2018-12-21T12:00:40.553Z,3.20
2018-12-21T12:03:08.873Z,3.00
2018-12-21T12:05:37.211Z,3.27
2018-12-21T12:08:05.523Z,4.30
2018-12-21T12:10:33.876Z,4.10
2018-12-21T12:13:02.444Z,3.20
2018-12-21T12:15:30.932Z,3.37
2018-12-21T12:17:59.967Z,2.90
2018-12-21T12:20:28.438Z,3.10
2018-12-21T12:22:56.741Z,3.00
2018-12-21T12:25:25.435Z,3.10
2018-12-21T12:27:53.957Z,3.30
2018-12-21T12:30:23.440Z,3.20
2018-12-21T12:32:51.869Z,3.03
2018-12-21T12:35:20.331Z,2.97
2018-12-21T12:37:49.561Z,3.60
2018-12-21T12:40:18.413Z,3.17
2018-12-21T12:42:46.616Z,4.20
2018-12-21T12:45:14.902Z,3.63
2018-12-21T12:47:43.269Z,3.27
2018-12-21T12:50:11.655Z,3.53
2018-12-21T12:52:39.990Z,3.07
2018-12-21T12:55:08.427Z,2.90
2018-12-21T12:57:37.155Z,2.93
2018-12-21T13:00:09.029Z,2.90
2018-12-21T13:02:37.352Z,2.70
2018-12-21T13:05:06.707Z,2.90
2018-12-21T13:07:35.355Z,3.13
2018-12-21T13:10:05.974Z,3.13
2018-12-21T13:12:34.633Z,3.00
2018-12-21T13:15:03.683Z,2.97
2018-12-21T13:17:32.010Z,4.40
2018-12-21T13:20:00.560Z,3.80
2018-12-21T13:22:28.949Z,3.30
2018-12-21T13:24:57.532Z,3.13
2018-12-21T13:27:25.905Z,3.60
2018-12-21T13:29:54.451Z,3.20
2018-12-21T13:32:22.794Z,4.00
2018-12-21T13:34:51.080Z,3.77
2018-12-21T13:37:19.386Z,4.43
2018-12-21T13:39:48.289Z,5.07
2018-12-21T13:42:16.855Z,5.07
2018-12-21T13:44:45.239Z,5.13
2018-12-21T13:47:13.615Z,4.30
2018-12-21T13:49:42.305Z,3.80
2018-12-21T13:52:10.711Z,3.27
2018-12-21T13:54:39.666Z,3.17
2018-12-21T13:57:08.371Z,3.37
2018-12-21T13:59:36.690Z,3.23
2018-12-21T14:02:05.699Z,2.87
2018-12-21T14:04:34.029Z,3.10
2018-12-21T14:07:02.392Z,2.57
2018-12-21T14:09:30.902Z,2.80
2018-12-21T14:11:59.249Z,3.20
2018-12-21T14:14:27.543Z,3.27
2018-12-21T14:16:56.265Z,3.33
2018-12-21T14:19:24.839Z,3.80
2018-12-21T14:21:53.528Z,3.70
2018-12-21T14:24:21.789Z,3.20
2018-12-21T14:26:50.090Z,3.80
2018-12-21T14:29:18.571Z,3.33
2018-12-21T14:31:47.377Z,3.40
2018-12-21T14:34:15.746Z,3.70
2018-12-21T14:36:44.043Z,3.63
2018-12-21T14:39:12.408Z,5.13
2018-12-21T14:41:40.724Z,4.80
2018-12-21T14:44:10.119Z,4.40
2018-12-21T14:46:38.646Z,4.27
2018-12-21T14:49:07.446Z,4.07
2018-12-21T14:51:35.876Z,5.00
2018-12-21T14:54:04.292Z,4.93
2018-12-21T14:56:32.604Z,4.53
2018-12-21T14:59:01.254Z,6.10
2018-12-21T15:01:29.663Z,5.50
2018-12-21T15:03:58.297Z,5.33
2018-12-21T15:06:26.653Z,6.20
2018-12-21T15:08:55.242Z,4.97
2018-12-21T15:11:23.722Z,5.70
2018-12-21T15:13:52.279Z,5.00
2018-12-21T15:16:20.742Z,5.20
2018-12-21T15:18:49.129Z,4.83
2018-12-21T15:21:17.480Z,4.40
2018-12-21T15:23:45.841Z,4.10
2018-12-21T15:26:14.211Z,5.00
2018-12-21T15:28:42.542Z,4.80
2018-12-21T15:31:10.865Z,5.80
2018-12-21T15:33:39.179Z,5.43
2018-12-21T15:36:07.584Z,6.47
2018-12-21T15:38:35.929Z,5.87
2018-12-21T15:41:04.269Z,6.07
2018-12-21T15:43:32.651Z,5.63
2018-12-21T15:46:01.049Z,5.60
2018-12-21T15:48:29.326Z,6.87
2018-12-21T15:50:57.679Z,5.87
2018-12-21T15:53:25.908Z,5.27
2018-12-21T15:55:54.831Z,5.83
2018-12-21T15:58:23.427Z,5.47
2018-12-21T16:00:51.750Z,6.30
2018-12-21T16:03:20.178Z,6.10
2018-12-21T16:05:48.441Z,6.00
2018-12-21T16:08:16.828Z,6.57
2018-12-21T16:10:45.103Z,6.60
2018-12-21T16:13:13.364Z,5.60
2018-12-21T16:15:41.755Z,6.80
2018-12-21T16:18:10.168Z,6.60
2018-12-21T16:20:38.424Z,6.47
2018-12-21T16:23:06.783Z,6.63
2018-12-21T16:25:35.183Z,5.77
2018-12-21T16:28:03.472Z,6.20
2018-12-21T16:30:31.745Z,5.97
2018-12-21T16:33:00.116Z,6.60
2018-12-21T16:35:28.338Z,6.50
2018-12-21T16:37:56.736Z,7.60
2018-12-21T16:40:25.048Z,5.70
2018-12-21T16:42:53.330Z,8.27
2018-12-21T16:45:21.769Z,7.37
2018-12-21T16:47:50.246Z,5.30
2018-12-21T16:50:18.627Z,7.53
2018-12-21T16:52:46.832Z,6.47
2018-12-21T16:55:15.172Z,6.27
2018-12-21T16:57:45.229Z,5.80
2018-12-21T17:00:13.670Z,6.70
2018-12-21T17:02:42.000Z,7.37
2018-12-21T17:05:10.344Z,6.23
2018-12-21T17:07:38.797Z,7.67
2018-12-21T17:10:09.668Z,7.17
2018-12-21T17:12:38.110Z,7.13
2018-12-21T17:15:09.074Z,6.17
2018-12-21T17:17:37.531Z,5.53
2018-12-21T17:20:07.647Z,6.73
2018-12-21T17:22:36.125Z,5.77
2018-12-21T17:25:06.386Z,6.30
2018-12-21T17:27:34.722Z,6.13
2018-12-21T17:30:03.610Z,5.37
2018-12-21T17:32:32.703Z,6.47
2018-12-21T17:35:01.083Z,6.30
2018-12-21T17:37:29.370Z,6.10
2018-12-21T17:39:57.685Z,6.23
2018-12-21T17:42:26.113Z,6.07
2018-12-21T17:44:54.468Z,6.60
2018-12-21T17:47:22.686Z,6.47
2018-12-21T17:49:50.972Z,6.97
2018-12-21T17:52:19.265Z,6.97
2018-12-21T17:54:47.605Z,6.10
2018-12-21T17:57:15.961Z,7.33
2018-12-21T17:59:44.196Z,7.13
2018-12-21T18:02:12.613Z,5.90
2018-12-21T18:04:40.943Z,6.30
2018-12-21T18:07:09.372Z,5.97
2018-12-21T18:09:37.633Z,5.83
2018-12-21T18:12:06.018Z,7.40
2018-12-21T18:14:34.242Z,5.97
2018-12-21T18:17:02.505Z,6.40
2018-12-21T18:19:30.843Z,7.40
2018-12-21T18:21:59.221Z,6.70
2018-12-21T18:24:27.536Z,7.30
2018-12-21T18:26:55.784Z,5.83
2018-12-21T18:29:24.145Z,7.90
2018-12-21T18:31:52.482Z,6.13
2018-12-21T18:34:24.932Z,6.33
2018-12-21T18:36:53.373Z,6.50
2018-12-21T18:39:21.647Z,6.13
2018-12-21T18:41:49.906Z,6.30
2018-12-21T18:44:18.300Z,7.73
2018-12-21T18:46:46.509Z,7.77
2018-12-21T18:49:14.830Z,7.33
2018-12-21T18:51:43.307Z,8.33
2018-12-21T18:54:11.807Z,6.73
2018-12-21T18:56:47.308Z,6.70
2018-12-21T18:59:14.252Z,8.97
2018-12-21T19:01:42.570Z,6.50
2018-12-21T19:04:10.871Z,7.70
2018-12-21T19:06:39.223Z,6.57
2018-12-21T19:09:07.536Z,7.80
2018-12-21T19:11:35.917Z,6.30
2018-12-21T19:14:04.391Z,6.87
2018-12-21T19:16:32.833Z,6.40
2018-12-21T19:19:01.106Z,7.20
2018-12-21T19:21:29.383Z,7.37
2018-12-21T19:23:57.618Z,8.80
2018-12-21T19:26:25.993Z,6.93
2018-12-21T19:28:54.344Z,6.10
2018-12-21T19:31:22.786Z,8.40
2018-12-21T19:33:52.114Z,7.50
2018-12-21T19:36:20.871Z,8.40
2018-12-21T19:38:49.254Z,8.33
2018-12-21T19:41:17.728Z,6.43
2018-12-21T19:43:46.077Z,8.03
2018-12-21T19:46:14.362Z,7.83
2018-12-21T19:48:42.758Z,7.80
2018-12-21T19:51:11.073Z,6.63
2018-12-21T19:53:39.410Z,7.67
2018-12-21T19:56:10.796Z,8.07
2018-12-21T19:58:39.131Z,7.40
2018-12-21T20:01:07.510Z,7.33
2018-12-21T20:03:35.756Z,7.13
2018-12-21T20:06:04.060Z,7.67
2018-12-21T20:08:32.512Z,7.60
2018-12-21T20:11:01.941Z,7.53
2018-12-21T20:13:30.217Z,6.90
2018-12-21T20:15:58.487Z,6.40
2018-12-21T20:18:26.863Z,6.40
2018-12-21T20:20:55.343Z,7.07
2018-12-21T20:23:23.652Z,6.77
2018-12-21T20:25:51.946Z,6.60
2018-12-21T20:28:20.371Z,7.17
2018-12-21T20:30:48.648Z,9.37
2018-12-21T20:33:16.985Z,7.43
2018-12-21T20:35:45.431Z,7.00
2018-12-21T20:38:21.085Z,7.40
2018-12-21T20:40:44.033Z,7.53
2018-12-21T20:43:12.374Z,7.87
2018-12-21T20:45:40.741Z,8.40
2018-12-21T20:48:09.342Z,7.17
2018-12-21T20:50:37.711Z,7.83
2018-12-21T20:53:05.952Z,7.83
2018-12-21T20:55:34.361Z,8.03
2018-12-21T20:58:03.903Z,7.63
2018-12-21T21:00:32.345Z,6.87
2018-12-21T21:03:00.664Z,7.67
2018-12-21T21:05:28.960Z,7.70
2018-12-21T21:07:57.372Z,6.20
2018-12-21T21:10:25.783Z,6.97
2018-12-21T21:12:54.110Z,7.07
2018-12-21T21:15:22.503Z,7.70
2018-12-21T21:17:50.839Z,6.93
2018-12-21T21:20:19.667Z,8.03
2018-12-21T21:22:47.880Z,8.30
2018-12-21T21:25:16.161Z,8.47
2018-12-21T21:27:44.594Z,7.87
2018-12-21T21:30:15.599Z,8.27
2018-12-21T21:32:44.011Z,8.40
2018-12-21T21:35:12.329Z,8.87
2018-12-21T21:37:40.587Z,8.20
2018-12-21T21:40:12.483Z,6.90
2018-12-21T21:42:40.896Z,12.10
2018-12-21T21:45:10.091Z,8.60
2018-12-21T21:47:38.331Z,9.90
2018-12-21T21:50:09.032Z,8.37
2018-12-21T21:52:37.415Z,8.80
2018-12-21T21:55:06.140Z,10.80
2018-12-21T21:57:39.266Z,8.43
2018-12-21T22:00:08.534Z,8.90
2018-12-21T22:02:36.922Z,8.23
2018-12-21T22:05:05.400Z,8.30
2018-12-21T22:07:33.651Z,10.77
2018-12-21T22:10:01.982Z,8.90
2018-12-21T22:12:30.269Z,9.17
2018-12-21T22:14:58.548Z,9.20
2018-12-21T22:17:26.840Z,8.50
2018-12-21T22:19:55.060Z,8.93
2018-12-21T22:22:23.367Z,7.97
2018-12-21T22:24:51.643Z,9.57
2018-12-21T22:27:19.918Z,7.30
2018-12-21T22:29:48.351Z,8.77
2018-12-21T22:32:16.735Z,8.40
2018-12-21T22:34:45.011Z,9.80
2018-12-21T22:37:13.240Z,8.80
2018-12-21T22:39:41.610Z,9.33
2018-12-21T22:42:09.932Z,8.93
2018-12-21T22:44:38.306Z,10.50
2018-12-21T22:47:06.511Z,10.53
2018-12-21T22:49:34.963Z,8.73
2018-12-21T22:52:03.279Z,9.97
2018-12-21T22:54:31.817Z,8.60
2018-12-21T22:57:00.045Z,9.63
2018-12-21T22:59:28.362Z,11.03
2018-12-21T23:01:56.583Z,7.73
2018-12-21T23:04:25.014Z,8.50
2018-12-21T23:06:53.390Z,8.30
2018-12-21T23:09:21.719Z,9.23
2018-12-21T23:11:50.095Z,9.87
2018-12-21T23:14:18.446Z,9.80
2018-12-21T23:16:46.897Z,9.57
2018-12-21T23:19:15.377Z,12.50
2018-12-21T23:21:43.651Z,9.90
2018-12-21T23:24:11.952Z,7.97
2018-12-21T23:26:40.303Z,9.13
2018-12-21T23:29:08.516Z,8.63
2018-12-21T23:31:36.852Z,8.20
2018-12-21T23:34:05.229Z,9.97
2018-12-21T23:36:33.728Z,9.80
2018-12-21T23:39:02.029Z,9.90
2018-12-21T23:41:30.300Z,8.40
2018-12-21T23:43:58.634Z,7.70
2018-12-21T23:46:26.945Z,8.77
2018-12-21T23:48:55.220Z,9.40
2018-12-21T23:51:23.525Z,9.53
2018-12-21T23:53:51.835Z,8.17
2018-12-21T23:56:20.158Z,8.63
2018-12-21T23:58:48.486Z,7.63
